sensor_id;sensor_type;location;lat;lon;timestamp;pressure;altitude;pressure_sealevel;temperature;humidity
63321;BME280;49449;48.800;9.534;2023-02-21T00:01:26;99100.28;;;5.93;38.09
63321;BME280;49449;48.800;9.534;2023-02-21T00:04:11;99089.47;;;5.81;37.50
63321;BME280;49449;48.800;9.534;2023-02-21T00:06:58;99086.84;;;5.66;38.12
63321;BME280;49449;48.800;9.534;2023-02-21T00:09:43;99088.19;;;5.77;38.13
63321;BME280;49449;48.800;9.534;2023-02-21T00:12:29;99079.88;;;5.74;38.17
63321;BME280;49449;48.800;9.534;2023-02-21T00:15:15;99080.72;;;5.74;37.99
63321;BME280;49449;48.800;9.534;2023-02-21T00:18:00;99082.50;;;5.74;38.10
63321;BME280;49449;48.800;9.534;2023-02-21T00:20:46;99083.78;;;5.78;38.12
63321;BME280;49449;48.800;9.534;2023-02-21T00:23:34;99093.59;;;5.76;37.77
63321;BME280;49449;48.800;9.534;2023-02-21T00:26:19;99075.19;;;5.69;38.20
63321;BME280;49449;48.800;9.534;2023-02-21T00:29:05;99072.47;;;5.62;39.31
63321;BME280;49449;48.800;9.534;2023-02-21T00:31:50;99080.78;;;5.66;38.50
63321;BME280;49449;48.800;9.534;2023-02-21T00:34:35;99081.41;;;5.68;37.84
63321;BME280;49449;48.800;9.534;2023-02-21T00:37:21;99076.34;;;5.66;38.09
63321;BME280;49449;48.800;9.534;2023-02-21T00:40:10;99074.94;;;5.64;37.91
63321;BME280;49449;48.800;9.534;2023-02-21T00:42:55;99078.25;;;5.58;38.28
63321;BME280;49449;48.800;9.534;2023-02-21T00:45:41;99071.50;;;5.48;38.21
63321;BME280;49449;48.800;9.534;2023-02-21T00:48:26;99073.22;;;5.41;37.91
63321;BME280;49449;48.800;9.534;2023-02-21T00:51:11;99071.56;;;5.40;37.96
63321;BME280;49449;48.800;9.534;2023-02-21T00:53:56;99068.41;;;5.45;38.37
63321;BME280;49449;48.800;9.534;2023-02-21T00:56:44;99065.63;;;5.46;38.36
63321;BME280;49449;48.800;9.534;2023-02-21T00:59:29;99061.47;;;5.37;38.07
63321;BME280;49449;48.800;9.534;2023-02-21T01:02:14;99058.66;;;5.24;38.25
63321;BME280;49449;48.800;9.534;2023-02-21T01:05:00;99061.28;;;5.24;38.47
63321;BME280;49449;48.800;9.534;2023-02-21T01:07:45;99069.41;;;5.29;38.28
63321;BME280;49449;48.800;9.534;2023-02-21T01:10:30;99066.25;;;5.33;38.55
63321;BME280;49449;48.800;9.534;2023-02-21T01:13:17;99055.56;;;5.35;38.26
63321;BME280;49449;48.800;9.534;2023-02-21T01:16:02;99060.81;;;5.35;38.22
63321;BME280;49449;48.800;9.534;2023-02-21T01:18:50;99069.50;;;5.36;38.38
63321;BME280;49449;48.800;9.534;2023-02-21T01:21:36;99062.53;;;5.28;38.44
63321;BME280;49449;48.800;9.534;2023-02-21T01:24:21;99047.72;;;5.20;38.19
63321;BME280;49449;48.800;9.534;2023-02-21T01:27:06;99058.38;;;5.04;38.12
63321;BME280;49449;48.800;9.534;2023-02-21T01:29:53;99064.41;;;5.04;38.47
63321;BME280;49449;48.800;9.534;2023-02-21T01:32:38;99057.06;;;5.00;38.21
63321;BME280;49449;48.800;9.534;2023-02-21T01:35:23;99056.34;;;4.91;38.47
63321;BME280;49449;48.800;9.534;2023-02-21T01:38:09;99058.84;;;4.84;38.58
63321;BME280;49449;48.800;9.534;2023-02-21T01:40:54;99055.19;;;4.93;38.30
63321;BME280;49449;48.800;9.534;2023-02-21T01:43:56;99058.44;;;4.95;38.31
63321;BME280;49449;48.800;9.534;2023-02-21T01:46:43;99047.19;;;4.87;38.11
63321;BME280;49449;48.800;9.534;2023-02-21T01:49:28;99051.34;;;4.81;38.73
63321;BME280;49449;48.800;9.534;2023-02-21T01:52:14;99045.38;;;4.87;38.41
63321;BME280;49449;48.800;9.534;2023-02-21T01:55:00;99045.38;;;4.87;38.26
63321;BME280;49449;48.800;9.534;2023-02-21T01:57:46;99043.06;;;4.92;38.40
63321;BME280;49449;48.800;9.534;2023-02-21T02:00:32;99036.06;;;4.93;38.26
63321;BME280;49449;48.800;9.534;2023-02-21T02:03:19;99038.91;;;4.98;38.36
63321;BME280;49449;48.800;9.534;2023-02-21T02:06:14;99038.47;;;4.94;38.49
63321;BME280;49449;48.800;9.534;2023-02-21T02:09:15;99044.53;;;4.95;38.45
63321;BME280;49449;48.800;9.534;2023-02-21T02:12:15;99029.81;;;4.94;38.24
63321;BME280;49449;48.800;9.534;2023-02-21T02:15:23;99035.53;;;4.89;38.70
63321;BME280;49449;48.800;9.534;2023-02-21T02:18:15;99041.78;;;4.88;39.09
63321;BME280;49449;48.800;9.534;2023-02-21T02:21:23;99037.19;;;4.90;38.35
63321;BME280;49449;48.800;9.534;2023-02-21T02:24:31;99032.38;;;4.79;38.13
63321;BME280;49449;48.800;9.534;2023-02-21T02:27:30;99028.28;;;4.62;38.57
63321;BME280;49449;48.800;9.534;2023-02-21T02:33:44;99030.19;;;4.45;39.11
63321;BME280;49449;48.800;9.534;2023-02-21T02:36:20;99025.88;;;4.52;38.94
63321;BME280;49449;48.800;9.534;2023-02-21T02:38:57;99024.34;;;4.57;38.89
63321;BME280;49449;48.800;9.534;2023-02-21T02:41:31;99033.03;;;4.58;39.38
63321;BME280;49449;48.800;9.534;2023-02-21T02:44:08;99027.63;;;4.60;38.57
63321;BME280;49449;48.800;9.534;2023-02-21T02:46:40;99022.03;;;4.63;38.66
63321;BME280;49449;48.800;9.534;2023-02-21T02:49:13;99018.78;;;4.61;38.77
63321;BME280;49449;48.800;9.534;2023-02-21T02:51:44;99027.63;;;4.60;39.09
63321;BME280;49449;48.800;9.534;2023-02-21T02:54:12;99030.72;;;4.63;38.55
63321;BME280;49449;48.800;9.534;2023-02-21T02:56:40;99022.88;;;4.63;38.73
63321;BME280;49449;48.800;9.534;2023-02-21T02:59:10;99020.66;;;4.52;38.86
63321;BME280;49449;48.800;9.534;2023-02-21T03:02:01;99015.78;;;4.49;38.74
63321;BME280;49449;48.800;9.534;2023-02-21T03:04:43;99018.94;;;4.44;38.94
63321;BME280;49449;48.800;9.534;2023-02-21T03:07:25;99020.47;;;4.53;38.63
63321;BME280;49449;48.800;9.534;2023-02-21T03:10:06;99019.50;;;4.54;38.81
63321;BME280;49449;48.800;9.534;2023-02-21T03:12:42;99021.94;;;4.56;38.57
63321;BME280;49449;48.800;9.534;2023-02-21T03:15:15;99025.53;;;4.55;38.92
63321;BME280;49449;48.800;9.534;2023-02-21T03:17:48;99025.06;;;4.51;38.83
63321;BME280;49449;48.800;9.534;2023-02-21T03:20:19;99018.75;;;4.46;38.75
63321;BME280;49449;48.800;9.534;2023-02-21T03:22:51;99015.03;;;4.40;38.69
63321;BME280;49449;48.800;9.534;2023-02-21T03:25:20;99014.75;;;4.35;38.77
63321;BME280;49449;48.800;9.534;2023-02-21T03:27:50;99011.97;;;4.36;38.75
63321;BME280;49449;48.800;9.534;2023-02-21T03:30:18;99011.75;;;4.38;38.79
63321;BME280;49449;48.800;9.534;2023-02-21T03:32:49;99007.19;;;4.40;39.31
63321;BME280;49449;48.800;9.534;2023-02-21T03:35:18;99006.81;;;4.43;38.94
63321;BME280;49449;48.800;9.534;2023-02-21T03:37:48;99017.44;;;4.42;39.00
63321;BME280;49449;48.800;9.534;2023-02-21T03:40:21;99016.03;;;4.39;38.84
63321;BME280;49449;48.800;9.534;2023-02-21T03:42:50;99021.25;;;4.39;38.75
63321;BME280;49449;48.800;9.534;2023-02-21T03:45:18;99013.09;;;4.34;38.39
63321;BME280;49449;48.800;9.534;2023-02-21T03:47:46;99017.75;;;4.24;38.74
63321;BME280;49449;48.800;9.534;2023-02-21T03:50:14;99009.78;;;4.17;38.70
63321;BME280;49449;48.800;9.534;2023-02-21T03:52:42;99014.03;;;4.18;38.93
63321;BME280;49449;48.800;9.534;2023-02-21T03:55:11;99011.25;;;4.19;38.93
63321;BME280;49449;48.800;9.534;2023-02-21T03:57:39;99007.88;;;4.11;42.74
63321;BME280;49449;48.800;9.534;2023-02-21T04:00:08;99005.72;;;4.14;40.11
63321;BME280;49449;48.800;9.534;2023-02-21T04:02:36;99005.84;;;4.21;39.20
63321;BME280;49449;48.800;9.534;2023-02-21T04:05:04;99009.28;;;4.22;42.42
63321;BME280;49449;48.800;9.534;2023-02-21T04:07:32;99010.63;;;4.17;44.02
63321;BME280;49449;48.800;9.534;2023-02-21T04:10:00;99014.22;;;4.16;40.77
63321;BME280;49449;48.800;9.534;2023-02-21T04:12:29;99010.63;;;4.17;39.40
63321;BME280;49449;48.800;9.534;2023-02-21T04:14:57;99013.91;;;4.11;39.50
63321;BME280;49449;48.800;9.534;2023-02-21T04:17:25;99011.13;;;4.13;39.23
63321;BME280;49449;48.800;9.534;2023-02-21T04:19:53;99010.97;;;4.14;38.92
63321;BME280;49449;48.800;9.534;2023-02-21T04:22:20;99016.19;;;4.14;38.55
63321;BME280;49449;48.800;9.534;2023-02-21T04:24:48;99016.19;;;4.14;38.77
63321;BME280;49449;48.800;9.534;2023-02-21T04:27:16;99013.56;;;4.14;38.38
63321;BME280;49449;48.800;9.534;2023-02-21T04:29:45;99018.22;;;4.04;38.78
63321;BME280;49449;48.800;9.534;2023-02-21T04:32:13;99019.13;;;3.88;38.91
63321;BME280;49449;48.800;9.534;2023-02-21T04:34:40;99014.47;;;3.75;38.82
63321;BME280;49449;48.800;9.534;2023-02-21T04:37:08;99006.72;;;3.59;39.02
63321;BME280;49449;48.800;9.534;2023-02-21T04:39:36;99001.13;;;3.62;39.08
63321;BME280;49449;48.800;9.534;2023-02-21T04:42:04;99000.75;;;3.73;39.04
63321;BME280;49449;48.800;9.534;2023-02-21T04:44:31;99005.91;;;3.81;38.68
63321;BME280;49449;48.800;9.534;2023-02-21T04:47:00;99011.81;;;3.84;38.95
63321;BME280;49449;48.800;9.534;2023-02-21T04:49:28;99002.00;;;3.86;39.29
63321;BME280;49449;48.800;9.534;2023-02-21T04:51:56;99011.28;;;3.88;39.04
63321;BME280;49449;48.800;9.534;2023-02-21T04:54:23;99001.81;;;3.87;39.11
63321;BME280;49449;48.800;9.534;2023-02-21T04:56:51;99004.59;;;3.86;38.89
63321;BME280;49449;48.800;9.534;2023-02-21T04:59:19;99002.34;;;3.82;38.97
63321;BME280;49449;48.800;9.534;2023-02-21T05:01:47;98992.84;;;3.81;38.97
63321;BME280;49449;48.800;9.534;2023-02-21T05:04:16;98998.75;;;3.84;39.34
63321;BME280;49449;48.800;9.534;2023-02-21T05:06:43;98995.28;;;3.83;39.42
63321;BME280;49449;48.800;9.534;2023-02-21T05:09:11;99005.25;;;3.88;39.35
63321;BME280;49449;48.800;9.534;2023-02-21T05:11:39;99005.09;;;3.89;39.44
63321;BME280;49449;48.800;9.534;2023-02-21T05:14:07;98999.84;;;3.89;39.18
63321;BME280;49449;48.800;9.534;2023-02-21T05:16:35;99003.28;;;3.90;39.36
63321;BME280;49449;48.800;9.534;2023-02-21T05:19:02;99007.88;;;3.88;39.90
63321;BME280;49449;48.800;9.534;2023-02-21T05:21:35;98999.69;;;3.91;39.33
63321;BME280;49449;48.800;9.534;2023-02-21T05:24:04;98996.41;;;3.89;39.23
63321;BME280;49449;48.800;9.534;2023-02-21T05:26:35;98998.75;;;3.84;39.19
63321;BME280;49449;48.800;9.534;2023-02-21T05:29:03;99001.81;;;3.87;39.38
63321;BME280;49449;48.800;9.534;2023-02-21T05:31:31;98994.78;;;3.88;39.26
63321;BME280;49449;48.800;9.534;2023-02-21T05:33:59;98992.97;;;3.88;39.30
63321;BME280;49449;48.800;9.534;2023-02-21T05:36:27;98989.25;;;3.82;39.07
63321;BME280;49449;48.800;9.534;2023-02-21T05:38:56;98999.56;;;3.84;39.27
63321;BME280;49449;48.800;9.534;2023-02-21T05:41:23;98991.88;;;3.82;39.14
63321;BME280;49449;48.800;9.534;2023-02-21T05:43:51;98991.25;;;3.80;39.29
63321;BME280;49449;48.800;9.534;2023-02-21T05:46:21;99002.16;;;3.84;39.23
63321;BME280;49449;48.800;9.534;2023-02-21T05:48:49;98996.94;;;3.84;39.64
63321;BME280;49449;48.800;9.534;2023-02-21T05:51:18;98995.13;;;3.85;39.21
63321;BME280;49449;48.800;9.534;2023-02-21T05:53:46;98995.34;;;3.75;39.40
63321;BME280;49449;48.800;9.534;2023-02-21T05:56:16;98991.44;;;3.71;39.30
63321;BME280;49449;48.800;9.534;2023-02-21T05:58:44;98993.81;;;3.57;39.68
63321;BME280;49449;48.800;9.534;2023-02-21T06:01:12;98991.97;;;3.66;39.88
63321;BME280;49449;48.800;9.534;2023-02-21T06:03:40;98992.78;;;3.67;39.75
63321;BME280;49449;48.800;9.534;2023-02-21T06:06:08;98982.53;;;3.57;39.43
63321;BME280;49449;48.800;9.534;2023-02-21T06:08:43;98988.88;;;3.62;39.41
63321;BME280;49449;48.800;9.534;2023-02-21T06:11:11;98993.59;;;3.67;39.64
63321;BME280;49449;48.800;9.534;2023-02-21T06:13:41;98994.91;;;3.71;39.45
63321;BME280;49449;48.800;9.534;2023-02-21T06:16:09;98996.81;;;3.77;39.23
63321;BME280;49449;48.800;9.534;2023-02-21T06:18:36;98988.78;;;3.79;38.93
63321;BME280;49449;48.800;9.534;2023-02-21T06:21:04;98995.06;;;3.70;38.83
63321;BME280;49449;48.800;9.534;2023-02-21T06:23:32;99001.44;;;3.67;38.92
63321;BME280;49449;48.800;9.534;2023-02-21T06:26:00;99008.75;;;3.72;39.08
63321;BME280;49449;48.800;9.534;2023-02-21T06:28:28;99014.28;;;3.77;39.00
63321;BME280;49449;48.800;9.534;2023-02-21T06:30:57;99010.50;;;3.79;38.81
63321;BME280;49449;48.800;9.534;2023-02-21T06:33:25;99016.06;;;3.76;38.65
63321;BME280;49449;48.800;9.534;2023-02-21T06:35:52;99009.91;;;3.69;38.79
63321;BME280;49449;48.800;9.534;2023-02-21T06:38:21;99011.56;;;3.62;38.84
63321;BME280;49449;48.800;9.534;2023-02-21T06:40:49;99010.69;;;3.47;38.87
63321;BME280;49449;48.800;9.534;2023-02-21T06:43:17;99001.91;;;3.31;39.24
63321;BME280;49449;48.800;9.534;2023-02-21T06:45:44;99003.03;;;3.29;39.18
63321;BME280;49449;48.800;9.534;2023-02-21T06:48:15;98998.63;;;3.37;39.59
63321;BME280;49449;48.800;9.534;2023-02-21T06:50:43;98996.94;;;3.44;39.23
63321;BME280;49449;48.800;9.534;2023-02-21T06:53:11;99006.00;;;3.25;39.38
63321;BME280;49449;48.800;9.534;2023-02-21T06:55:38;99003.03;;;3.37;39.66
63321;BME280;49449;48.800;9.534;2023-02-21T06:58:06;99002.84;;;3.30;39.80
63321;BME280;49449;48.800;9.534;2023-02-21T07:00:34;99010.84;;;3.29;40.06
63321;BME280;49449;48.800;9.534;2023-02-21T07:03:02;99004.16;;;3.42;41.06
63321;BME280;49449;48.800;9.534;2023-02-21T07:05:31;99000.81;;;3.57;39.98
63321;BME280;49449;48.800;9.534;2023-02-21T07:08:00;99014.00;;;3.72;39.90
63321;BME280;49449;48.800;9.534;2023-02-21T07:10:28;99012.44;;;3.86;39.83
63321;BME280;49449;48.800;9.534;2023-02-21T07:12:56;99010.59;;;3.94;39.39
63321;BME280;49449;48.800;9.534;2023-02-21T07:15:24;99010.84;;;4.08;39.44
63321;BME280;49449;48.800;9.534;2023-02-21T07:17:51;99013.44;;;4.31;39.01
63321;BME280;49449;48.800;9.534;2023-02-21T07:20:19;99008.56;;;4.51;38.96
63321;BME280;49449;48.800;9.534;2023-02-21T07:22:48;99013.78;;;4.74;38.62
63321;BME280;49449;48.800;9.534;2023-02-21T07:25:18;99017.19;;;4.89;38.48
63321;BME280;49449;48.800;9.534;2023-02-21T07:27:47;99016.53;;;5.10;38.37
63321;BME280;49449;48.800;9.534;2023-02-21T07:30:15;99010.56;;;5.31;37.75
63321;BME280;49449;48.800;9.534;2023-02-21T07:32:43;99005.78;;;5.50;37.68
63321;BME280;49449;48.800;9.534;2023-02-21T07:35:14;99003.56;;;5.68;36.81
63321;BME280;49449;48.800;9.534;2023-02-21T07:37:42;99015.47;;;5.86;36.70
63321;BME280;49449;48.800;9.534;2023-02-21T07:40:11;99021.06;;;5.98;36.60
63321;BME280;49449;48.800;9.534;2023-02-21T07:42:40;99015.00;;;6.19;36.13
63321;BME280;49449;48.800;9.534;2023-02-21T07:45:09;99011.19;;;6.36;36.00
63321;BME280;49449;48.800;9.534;2023-02-21T07:47:37;99014.09;;;6.48;36.00
63321;BME280;49449;48.800;9.534;2023-02-21T07:50:06;99014.56;;;6.58;35.47
63321;BME280;49449;48.800;9.534;2023-02-21T07:52:33;99014.88;;;6.70;35.91
63321;BME280;49449;48.800;9.534;2023-02-21T07:55:01;99013.97;;;6.84;35.38
63321;BME280;49449;48.800;9.534;2023-02-21T07:57:30;99011.81;;;6.95;35.49
63321;BME280;49449;48.800;9.534;2023-02-21T07:59:58;99001.78;;;7.05;35.28
63321;BME280;49449;48.800;9.534;2023-02-21T08:02:26;99011.50;;;7.11;36.08
63321;BME280;49449;48.800;9.534;2023-02-21T08:04:53;99006.13;;;7.19;35.28
63321;BME280;49449;48.800;9.534;2023-02-21T08:07:21;99008.38;;;7.22;35.54
63321;BME280;49449;48.800;9.534;2023-02-21T08:09:50;99007.53;;;7.22;35.61
63321;BME280;49449;48.800;9.534;2023-02-21T08:12:18;99015.41;;;7.15;36.39
63321;BME280;49449;48.800;9.534;2023-02-21T08:14:47;99008.88;;;7.11;36.36
63321;BME280;49449;48.800;9.534;2023-02-21T08:17:15;99008.69;;;7.13;35.91
63321;BME280;49449;48.800;9.534;2023-02-21T08:19:42;99008.88;;;7.11;35.83
63321;BME280;49449;48.800;9.534;2023-02-21T08:22:10;99006.63;;;7.08;36.07
63321;BME280;49449;48.800;9.534;2023-02-21T08:24:38;99012.72;;;7.09;38.20
63321;BME280;49449;48.800;9.534;2023-02-21T08:27:06;99015.00;;;7.18;39.43
63321;BME280;49449;48.800;9.534;2023-02-21T08:29:34;99015.03;;;7.60;39.62
63321;BME280;49449;48.800;9.534;2023-02-21T08:32:03;99001.84;;;8.42;38.06
63321;BME280;49449;48.800;9.534;2023-02-21T08:34:30;99002.44;;;10.39;35.91
63321;BME280;49449;48.800;9.534;2023-02-21T08:36:58;99005.72;;;11.96;30.14
63321;BME280;49449;48.800;9.534;2023-02-21T08:39:26;99007.25;;;13.29;28.19
63321;BME280;49449;48.800;9.534;2023-02-21T08:41:55;99001.19;;;14.31;30.19
63321;BME280;49449;48.800;9.534;2023-02-21T08:44:23;98998.22;;;15.18;28.80
63321;BME280;49449;48.800;9.534;2023-02-21T08:46:51;98993.34;;;15.76;27.36
63321;BME280;49449;48.800;9.534;2023-02-21T08:49:20;98989.50;;;16.16;26.37
63321;BME280;49449;48.800;9.534;2023-02-21T08:51:47;98996.59;;;15.83;25.46
63321;BME280;49449;48.800;9.534;2023-02-21T08:54:15;98999.19;;;14.89;25.85
63321;BME280;49449;48.800;9.534;2023-02-21T08:56:44;98989.00;;;14.01;26.80
63321;BME280;49449;48.800;9.534;2023-02-21T08:59:14;98996.13;;;13.43;27.29
63321;BME280;49449;48.800;9.534;2023-02-21T09:01:41;98998.63;;;13.10;28.08
63321;BME280;49449;48.800;9.534;2023-02-21T09:04:09;99004.41;;;12.83;28.56
63321;BME280;49449;48.800;9.534;2023-02-21T09:06:38;99000.13;;;12.70;28.49
63321;BME280;49449;48.800;9.534;2023-02-21T09:09:06;98993.66;;;12.66;28.72
63321;BME280;49449;48.800;9.534;2023-02-21T09:11:34;99004.16;;;12.61;29.38
63321;BME280;49449;48.800;9.534;2023-02-21T09:14:01;98992.03;;;12.65;28.70
63321;BME280;49449;48.800;9.534;2023-02-21T09:16:31;98998.03;;;12.72;28.69
63321;BME280;49449;48.800;9.534;2023-02-21T09:18:59;98994.97;;;12.75;28.37
63321;BME280;49449;48.800;9.534;2023-02-21T09:21:27;98994.03;;;12.81;28.88
63321;BME280;49449;48.800;9.534;2023-02-21T09:23:56;98983.66;;;12.92;28.55
63321;BME280;49449;48.800;9.534;2023-02-21T09:26:25;98988.94;;;13.03;28.63
63321;BME280;49449;48.800;9.534;2023-02-21T09:28:57;98980.16;;;13.15;28.67
63321;BME280;49449;48.800;9.534;2023-02-21T09:31:25;98984.88;;;13.24;28.34
63321;BME280;49449;48.800;9.534;2023-02-21T09:33:52;98979.28;;;13.38;28.28
63321;BME280;49449;48.800;9.534;2023-02-21T09:36:21;98983.88;;;13.54;27.96
63321;BME280;49449;48.800;9.534;2023-02-21T09:38:49;98977.75;;;13.66;28.13
63321;BME280;49449;48.800;9.534;2023-02-21T09:41:19;98981.72;;;13.80;28.46
63321;BME280;49449;48.800;9.534;2023-02-21T09:43:49;98970.56;;;13.95;28.19
63321;BME280;49449;48.800;9.534;2023-02-21T09:46:23;98976.38;;;14.09;27.37
63321;BME280;49449;48.800;9.534;2023-02-21T09:48:55;98972.28;;;14.18;27.32
63321;BME280;49449;48.800;9.534;2023-02-21T09:51:23;98974.38;;;14.33;27.47
63321;BME280;49449;48.800;9.534;2023-02-21T09:53:53;98968.44;;;14.43;27.70
63321;BME280;49449;48.800;9.534;2023-02-21T09:56:27;98971.00;;;14.54;27.28
63321;BME280;49449;48.800;9.534;2023-02-21T09:58:55;98970.94;;;14.66;26.89
63321;BME280;49449;48.800;9.534;2023-02-21T10:01:41;98964.22;;;14.81;26.66
63321;BME280;49449;48.800;9.534;2023-02-21T10:04:19;98968.13;;;14.95;26.57
63321;BME280;49449;48.800;9.534;2023-02-21T10:06:50;98968.03;;;15.07;26.40
63321;BME280;49449;48.800;9.534;2023-02-21T10:09:27;98966.03;;;15.19;26.40
63321;BME280;49449;48.800;9.534;2023-02-21T10:12:11;98967.56;;;15.32;26.30
63321;BME280;49449;48.800;9.534;2023-02-21T10:14:59;98957.59;;;15.44;26.19
63321;BME280;49449;48.800;9.534;2023-02-21T10:17:35;98960.41;;;15.60;25.81
63321;BME280;49449;48.800;9.534;2023-02-21T10:20:12;98953.88;;;15.72;25.44
63321;BME280;49449;48.800;9.534;2023-02-21T10:22:43;98959.84;;;15.85;25.17
63321;BME280;49449;48.800;9.534;2023-02-21T10:25:20;98962.88;;;15.94;24.83
63321;BME280;49449;48.800;9.534;2023-02-21T10:27:51;98958.69;;;16.03;24.57
63321;BME280;49449;48.800;9.534;2023-02-21T10:30:25;98951.59;;;16.08;24.09
63321;BME280;49449;48.800;9.534;2023-02-21T10:32:55;98957.25;;;16.17;23.89
63321;BME280;49449;48.800;9.534;2023-02-21T10:35:24;98959.09;;;16.17;23.73
63321;BME280;49449;48.800;9.534;2023-02-21T10:37:55;98954.59;;;16.17;23.28
63321;BME280;49449;48.800;9.534;2023-02-21T10:40:29;98950.16;;;16.28;23.36
63321;BME280;49449;48.800;9.534;2023-02-21T10:43:03;98952.56;;;16.35;23.08
63321;BME280;49449;48.800;9.534;2023-02-21T10:45:37;98952.25;;;16.26;22.82
63321;BME280;49449;48.800;9.534;2023-02-21T10:48:08;98952.50;;;16.24;22.84
63321;BME280;49449;48.800;9.534;2023-02-21T10:50:42;98953.56;;;16.23;22.99
63321;BME280;49449;48.800;9.534;2023-02-21T10:53:30;98943.19;;;16.27;23.60
63321;BME280;49449;48.800;9.534;2023-02-21T10:56:20;98941.41;;;16.38;23.57
63321;BME280;49449;48.800;9.534;2023-02-21T10:58:52;98937.72;;;16.44;23.39
63321;BME280;49449;48.800;9.534;2023-02-21T11:01:30;98939.09;;;16.52;23.38
63321;BME280;49449;48.800;9.534;2023-02-21T11:04:00;98933.78;;;16.57;22.71
63321;BME280;49449;48.800;9.534;2023-02-21T11:06:33;98941.03;;;16.61;22.59
63321;BME280;49449;48.800;9.534;2023-02-21T11:09:03;98928.03;;;16.70;22.57
63321;BME280;49449;48.800;9.534;2023-02-21T11:11:59;98926.44;;;16.74;22.68
63321;BME280;49449;48.800;9.534;2023-02-21T11:14:29;98923.56;;;16.81;22.21
63321;BME280;49449;48.800;9.534;2023-02-21T11:17:15;98915.03;;;16.84;22.57
63321;BME280;49449;48.800;9.534;2023-02-21T11:19:49;98911.34;;;16.90;22.51
63321;BME280;49449;48.800;9.534;2023-02-21T11:22:21;98900.97;;;16.99;22.26
63321;BME280;49449;48.800;9.534;2023-02-21T11:24:59;98900.97;;;16.99;22.12
63321;BME280;49449;48.800;9.534;2023-02-21T11:27:29;98888.72;;;17.08;21.99
63321;BME280;49449;48.800;9.534;2023-02-21T11:29:59;98890.03;;;17.06;21.99
63321;BME280;49449;48.800;9.534;2023-02-21T11:32:31;98879.09;;;17.07;21.72
63321;BME280;49449;48.800;9.534;2023-02-21T11:35:19;98874.88;;;17.16;22.10
63321;BME280;49449;48.800;9.534;2023-02-21T11:37:49;98872.22;;;17.21;21.81
63321;BME280;49449;48.800;9.534;2023-02-21T11:40:28;98867.66;;;17.17;21.93
63321;BME280;49449;48.800;9.534;2023-02-21T11:43:17;98861.97;;;16.98;22.15
63321;BME280;49449;48.800;9.534;2023-02-21T11:45:55;98864.97;;;17.12;22.04
63321;BME280;49449;48.800;9.534;2023-02-21T11:48:30;98859.13;;;17.20;22.16
63321;BME280;49449;48.800;9.534;2023-02-21T11:51:04;98850.06;;;17.31;22.12
63321;BME280;49449;48.800;9.534;2023-02-21T11:53:37;98843.41;;;17.34;22.19
63321;BME280;49449;48.800;9.534;2023-02-21T11:56:12;98848.75;;;17.39;21.90
63321;BME280;49449;48.800;9.534;2023-02-21T11:58:48;98832.44;;;17.46;21.85
63321;BME280;49449;48.800;9.534;2023-02-21T12:01:25;98828.97;;;17.50;21.64
63321;BME280;49449;48.800;9.534;2023-02-21T12:04:06;98830.06;;;17.54;22.07
63321;BME280;49449;48.800;9.534;2023-02-21T12:06:40;98827.69;;;17.63;22.02
63321;BME280;49449;48.800;9.534;2023-02-21T12:09:14;98817.00;;;17.68;21.68
63321;BME280;49449;48.800;9.534;2023-02-21T12:11:57;98813.00;;;17.71;21.92
63321;BME280;49449;48.800;9.534;2023-02-21T12:14:39;98810.03;;;17.77;22.08
63321;BME280;49449;48.800;9.534;2023-02-21T12:17:22;98812.16;;;17.86;22.17
63321;BME280;49449;48.800;9.534;2023-02-21T12:20:06;98803.09;;;17.87;23.07
63321;BME280;49449;48.800;9.534;2023-02-21T12:22:48;98788.38;;;17.94;21.76
63321;BME280;49449;48.800;9.534;2023-02-21T12:25:22;98787.31;;;17.90;21.16
63321;BME280;49449;48.800;9.534;2023-02-21T12:27:57;98779.06;;;17.71;21.32
63321;BME280;49449;48.800;9.534;2023-02-21T12:30:40;98773.97;;;17.70;21.78
63321;BME280;49449;48.800;9.534;2023-02-21T12:33:31;98775.28;;;17.77;22.45
63321;BME280;49449;48.800;9.534;2023-02-21T12:36:09;98763.81;;;17.82;22.69
63321;BME280;49449;48.800;9.534;2023-02-21T12:38:51;98753.91;;;17.88;21.92
63321;BME280;49449;48.800;9.534;2023-02-21T12:41:31;98753.38;;;17.91;21.72
63321;BME280;49449;48.800;9.534;2023-02-21T12:44:10;98737.59;;;17.94;22.07
63321;BME280;49449;48.800;9.534;2023-02-21T12:46:42;98746.16;;;17.91;21.77
63321;BME280;49449;48.800;9.534;2023-02-21T12:49:18;98736.28;;;17.92;21.52
63321;BME280;49449;48.800;9.534;2023-02-21T12:51:51;98735.72;;;17.85;21.46
63321;BME280;49449;48.800;9.534;2023-02-21T12:54:24;98727.72;;;17.85;21.97
63321;BME280;49449;48.800;9.534;2023-02-21T12:56:57;98727.19;;;17.83;22.42
63321;BME280;49449;48.800;9.534;2023-02-21T12:59:30;98719.44;;;17.86;21.98
63321;BME280;49449;48.800;9.534;2023-02-21T13:02:03;98723.72;;;17.87;22.04
63321;BME280;49449;48.800;9.534;2023-02-21T13:04:44;98716.75;;;17.91;21.49
63321;BME280;49449;48.800;9.534;2023-02-21T13:07:16;98714.59;;;17.93;21.69
63321;BME280;49449;48.800;9.534;2023-02-21T13:09:58;98702.34;;;17.82;21.76
63321;BME280;49449;48.800;9.534;2023-02-21T13:12:32;98692.19;;;17.79;21.75
63321;BME280;49449;48.800;9.534;2023-02-21T13:15:13;98698.91;;;17.76;21.94
63321;BME280;49449;48.800;9.534;2023-02-21T13:17:49;98688.47;;;17.75;22.21
63321;BME280;49449;48.800;9.534;2023-02-21T13:20:21;98672.22;;;17.56;21.92
63321;BME280;49449;48.800;9.534;2023-02-21T13:26:26;98673.31;;;17.55;21.83
63321;BME280;49449;48.800;9.534;2023-02-21T13:28:58;98664.47;;;17.59;22.04
63321;BME280;49449;48.800;9.534;2023-02-21T13:31:27;98663.66;;;17.64;22.14
63321;BME280;49449;48.800;9.534;2023-02-21T13:34:05;98666.34;;;17.64;22.19
63321;BME280;49449;48.800;9.534;2023-02-21T13:36:42;98655.91;;;17.63;22.04
63321;BME280;49449;48.800;9.534;2023-02-21T13:39:12;98648.69;;;17.63;22.18
63321;BME280;49449;48.800;9.534;2023-02-21T13:41:43;98639.91;;;17.57;22.13
63321;BME280;49449;48.800;9.534;2023-02-21T13:44:16;98645.75;;;17.49;21.95
63321;BME280;49449;48.800;9.534;2023-02-21T13:47:12;98634.03;;;17.35;22.26
63321;BME280;49449;48.800;9.534;2023-02-21T13:52:51;98628.16;;;17.33;23.66
63321;BME280;49449;48.800;9.534;2023-02-21T13:55:27;98616.44;;;17.34;23.20